Carrizozo, New Mexico
Current Conditions -  °F | °C
As of 6:58 AM on Wednesday 22 Oct 2014 (Local Time) from KHMN Reporting Station
Clear Clear  
Wind Chill: 47°   Ceiling: Unl
Heat Index: 49°   Visibility: 10mi
Dew Point: 48°   Wind: 6mph
Humidity: 95%   Direction: 40°NE
Pressure: 30.1"   Gusts: NA
Location:  33.64°N, 105.88°W
Report Text: KHMN 221258Z AUTO 04005KT 10SM CLR 10/09 A3010 RMK AO2 SLP152 T00970089 $
Loading
Personal Weather Stations






























Interactive Weather Map
Tropical Storm Tracking
New forecast layout! Learn more

10-Day Weather Forecast

Advertisements
Track Severe Weather on mobile